Las Vegas, Nevada
Traffic Map
Current Weather Conditions
Las Vegas, Nevada
Broken Clouds
Broken Clouds
41°
Feels Like: 41°
Wind Chill: 41° Ceiling: 22000
Heat Index: 41° Visibility: 10mi
Dew Point: Wind: 6mph
Humidity: 14% Direction: 180° (S)
Pressure: 29.86in Gusts: 0mph
Raw Report DataKLAS 301856Z 18005KT 10SM FEW110 SCT160 BKN220 41/08 A2986 RMK AO2 SLP076 TCU DSNT N T04110083
Traffic Incident Summary
Active as of:
Severity:
Category:
InformationThere was an issue retrieving the traffic information for this location. Please try a different location or try again shortly.
Advertisements
Track Severe Weather on mobile